createdAt,value
2023-02-23T00:02:13.083Z,1.17
2023-02-23T00:04:42.349Z,1.17
2023-02-23T00:07:10.644Z,1.15
2023-02-23T00:09:39.485Z,1.20
2023-02-23T00:12:10.428Z,0.99
2023-02-23T00:14:38.682Z,0.94
2023-02-23T00:17:14.871Z,0.95
2023-02-23T00:19:44.151Z,1.11
2023-02-23T00:22:13.007Z,1.19
2023-02-23T00:24:43.147Z,1.27
2023-02-23T00:27:10.826Z,1.12
2023-02-23T00:29:40.819Z,1.00
2023-02-23T00:32:08.502Z,0.88
2023-02-23T00:34:37.078Z,0.88
2023-02-23T00:37:04.727Z,0.68
2023-02-23T00:39:32.275Z,0.64
2023-02-23T00:42:03.816Z,0.54
2023-02-23T00:44:34.074Z,0.60
2023-02-23T00:47:02.206Z,0.56
2023-02-23T00:49:29.780Z,0.45
2023-02-23T00:51:57.158Z,0.37
2023-02-23T00:54:24.700Z,0.37
2023-02-23T00:56:54.116Z,0.31
2023-02-23T00:59:21.685Z,0.30
2023-02-23T01:01:52.806Z,0.35
2023-02-23T01:04:20.123Z,0.43
2023-02-23T01:06:47.544Z,0.44
2023-02-23T01:09:28.710Z,0.32
2023-02-23T01:11:57.442Z,0.31
2023-02-23T01:14:25.367Z,0.29
2023-02-23T01:16:53.947Z,0.29
2023-02-23T01:19:22.578Z,0.26
2023-02-23T01:21:52.178Z,0.18
2023-02-23T01:24:20.844Z,0.16
2023-02-23T01:26:54.286Z,0.21
2023-02-23T01:29:22.713Z,0.27
2023-02-23T01:31:53.160Z,0.23
2023-02-23T01:34:21.948Z,0.27
2023-02-23T01:36:50.422Z,0.15
2023-02-23T01:39:23.447Z,0.16
2023-02-23T01:41:52.823Z,0.21
2023-02-23T01:44:20.309Z,0.13
2023-02-23T01:46:49.620Z,0.12
2023-02-23T01:49:23.701Z,0.15
2023-02-23T01:52:04.887Z,0.15
2023-02-23T01:54:36.671Z,0.11
2023-02-23T01:57:06.823Z,0.15
2023-02-23T01:59:36.685Z,0.15
2023-02-23T02:02:06.496Z,0.11
2023-02-23T02:04:44.802Z,0.15
2023-02-23T02:07:23.651Z,0.10
2023-02-23T02:10:11.326Z,0.12
2023-02-23T02:12:44.678Z,0.04
2023-02-23T02:15:17.706Z,-0.06
2023-02-23T02:18:09.553Z,-0.02
2023-02-23T02:21:12.120Z,0.05
2023-02-23T02:24:09.887Z,0.04
2023-02-23T02:26:54.769Z,0.22
2023-02-23T02:29:56.343Z,0.28
2023-02-23T02:32:26.211Z,0.13
2023-02-23T02:35:06.033Z,0.30
2023-02-23T02:37:56.966Z,0.37
2023-02-23T02:40:53.647Z,0.36
2023-02-23T02:43:43.176Z,0.32
2023-02-23T02:46:37.472Z,0.40
2023-02-23T02:49:26.884Z,0.53
2023-02-23T02:52:06.070Z,0.50
2023-02-23T02:54:40.270Z,0.53
2023-02-23T02:57:15.204Z,0.63
2023-02-23T03:00:08.219Z,0.69
2023-02-23T03:02:56.573Z,0.71
2023-02-23T03:05:55.254Z,0.59
2023-02-23T03:08:59.994Z,0.45
2023-02-23T03:11:55.768Z,0.57
2023-02-23T03:14:58.158Z,0.54
2023-02-23T03:18:06.670Z,0.72
2023-02-23T03:21:04.523Z,0.65
2023-02-23T03:24:20.344Z,0.63
2023-02-23T03:27:17.737Z,0.40
2023-02-23T03:30:22.243Z,0.52
2023-02-23T03:33:15.077Z,0.47
2023-02-23T03:36:19.549Z,0.57
2023-02-23T03:39:27.746Z,0.53
2023-02-23T03:42:16.966Z,0.54
2023-02-23T03:45:18.243Z,0.56
2023-02-23T03:48:05.527Z,0.47
2023-02-23T03:51:00.012Z,0.49
2023-02-23T03:53:54.785Z,0.53
2023-02-23T03:56:45.348Z,0.49
2023-02-23T03:59:37.000Z,0.43
2023-02-23T04:02:25.282Z,0.41
2023-02-23T04:05:15.564Z,0.34
2023-02-23T04:08:04.760Z,0.51
2023-02-23T04:10:53.726Z,0.47
2023-02-23T04:13:25.148Z,0.41
2023-02-23T04:16:00.682Z,0.47
2023-02-23T04:18:37.732Z,0.49
2023-02-23T04:21:06.525Z,0.44
2023-02-23T04:23:36.648Z,0.47
2023-02-23T04:26:05.415Z,0.36
2023-02-23T04:28:32.463Z,0.44
2023-02-23T04:31:02.591Z,0.32
2023-02-23T04:33:30.062Z,0.42
2023-02-23T04:35:58.499Z,0.36
2023-02-23T04:38:25.943Z,0.39
2023-02-23T04:40:53.409Z,0.27
2023-02-23T04:43:22.967Z,0.41
2023-02-23T04:45:51.862Z,0.50
2023-02-23T04:48:19.576Z,0.37
2023-02-23T04:50:53.351Z,0.38
2023-02-23T04:53:20.969Z,0.41
2023-02-23T04:55:48.400Z,0.35
2023-02-23T04:58:17.396Z,0.35
2023-02-23T05:00:45.897Z,0.34
2023-02-23T05:03:13.084Z,0.29
2023-02-23T05:05:41.242Z,0.30
2023-02-23T05:08:08.780Z,0.20
2023-02-23T05:10:37.347Z,0.31
2023-02-23T05:13:05.216Z,0.26
2023-02-23T05:15:32.868Z,0.28
2023-02-23T05:18:00.252Z,0.27
2023-02-23T05:20:28.628Z,0.22
2023-02-23T05:22:56.025Z,0.18
2023-02-23T05:25:23.506Z,0.12
2023-02-23T05:27:51.178Z,0.16
2023-02-23T05:30:19.482Z,0.16
2023-02-23T05:32:46.849Z,0.17
2023-02-23T05:35:14.288Z,0.19
2023-02-23T05:37:41.830Z,0.09
2023-02-23T05:40:09.586Z,0.20
2023-02-23T05:42:38.689Z,0.13
2023-02-23T05:45:07.473Z,0.11
2023-02-23T05:47:38.953Z,0.15
2023-02-23T05:50:12.542Z,0.19
2023-02-23T05:52:45.511Z,0.13
2023-02-23T05:55:13.564Z,0.09
2023-02-23T05:57:44.114Z,0.10
2023-02-23T06:00:19.365Z,0.07
2023-02-23T06:02:46.453Z,0.07
2023-02-23T06:05:14.372Z,0.10
2023-02-23T06:07:42.579Z,0.09
2023-02-23T06:10:10.436Z,0.06
2023-02-23T06:12:37.532Z,0.16
2023-02-23T06:15:12.258Z,0.19
2023-02-23T06:17:39.526Z,0.07
2023-02-23T06:20:07.587Z,0.15
2023-02-23T06:22:36.054Z,0.19
2023-02-23T06:25:05.257Z,0.19
2023-02-23T06:27:34.466Z,0.31
2023-02-23T06:30:01.969Z,0.28
2023-02-23T06:32:29.514Z,0.37
2023-02-23T06:34:58.275Z,0.43
2023-02-23T06:37:25.487Z,0.45
2023-02-23T06:39:52.574Z,0.46
2023-02-23T06:42:20.044Z,0.42
2023-02-23T06:44:47.484Z,0.44
2023-02-23T06:47:14.922Z,0.43
2023-02-23T06:49:42.413Z,0.57
2023-02-23T06:52:10.707Z,0.65
2023-02-23T06:54:41.998Z,0.64
2023-02-23T06:57:10.386Z,0.68
2023-02-23T06:59:37.846Z,0.66
2023-02-23T07:02:07.942Z,0.67
2023-02-23T07:04:35.303Z,0.65
2023-02-23T07:07:04.028Z,0.63
2023-02-23T07:09:31.720Z,0.72
2023-02-23T07:11:59.680Z,0.84
2023-02-23T07:14:27.444Z,0.81
2023-02-23T07:16:54.856Z,0.87
2023-02-23T07:19:28.623Z,0.91
2023-02-23T07:21:57.078Z,0.95
2023-02-23T07:24:27.715Z,1.03
2023-02-23T07:26:55.548Z,1.01
2023-02-23T07:29:28.386Z,1.12
2023-02-23T07:31:56.387Z,1.16
2023-02-23T07:34:23.834Z,1.22
2023-02-23T07:36:51.195Z,1.29
2023-02-23T07:39:18.793Z,1.31
2023-02-23T07:41:47.222Z,1.48
2023-02-23T07:44:14.571Z,1.60
2023-02-23T07:46:42.149Z,1.51
2023-02-23T07:49:10.615Z,1.56
2023-02-23T07:51:39.669Z,1.52
2023-02-23T07:54:10.150Z,1.71
2023-02-23T07:56:37.630Z,1.81
2023-02-23T07:59:06.072Z,1.86
2023-02-23T08:01:33.524Z,1.96
2023-02-23T08:04:01.230Z,2.15
2023-02-23T08:06:30.934Z,2.12
2023-02-23T08:09:03.179Z,2.36
2023-02-23T08:11:30.660Z,2.54
2023-02-23T08:14:02.936Z,2.65
2023-02-23T08:16:32.313Z,2.84
2023-02-23T08:19:00.930Z,2.90
2023-02-23T08:21:30.512Z,2.97
2023-02-23T08:23:59.246Z,2.51
2023-02-23T08:26:27.068Z,2.40
2023-02-23T08:28:55.364Z,2.24
2023-02-23T08:31:24.938Z,2.31
2023-02-23T08:33:53.764Z,2.37
2023-02-23T08:36:23.080Z,2.39
2023-02-23T08:38:51.556Z,2.43
2023-02-23T08:41:19.077Z,2.52
2023-02-23T08:43:46.680Z,2.45
2023-02-23T08:46:16.935Z,2.45
2023-02-23T08:48:44.346Z,2.48
2023-02-23T08:51:11.833Z,2.68
2023-02-23T08:53:39.251Z,2.79
2023-02-23T08:56:13.685Z,2.75
2023-02-23T08:58:43.039Z,2.72
2023-02-23T09:01:24.585Z,2.83
2023-02-23T09:03:51.821Z,3.08
2023-02-23T09:06:21.387Z,3.38
2023-02-23T09:08:48.703Z,3.37
2023-02-23T09:11:16.097Z,3.55
2023-02-23T09:13:44.091Z,3.79
2023-02-23T09:16:11.643Z,4.03
2023-02-23T09:18:39.534Z,4.23
2023-02-23T09:21:19.389Z,4.78
2023-02-23T09:23:48.551Z,5.53
2023-02-23T09:26:18.204Z,5.73
2023-02-23T09:28:46.815Z,6.10
2023-02-23T09:31:18.382Z,5.94
2023-02-23T09:33:46.947Z,6.55
2023-02-23T09:36:16.848Z,6.48
2023-02-23T09:38:46.021Z,6.67
2023-02-23T09:41:51.975Z,7.33
2023-02-23T09:44:48.395Z,8.06
2023-02-23T09:47:40.660Z,8.18
2023-02-23T09:50:22.897Z,8.18
2023-02-23T09:52:57.104Z,7.98
2023-02-23T09:55:26.029Z,7.80
2023-02-23T09:57:59.436Z,7.64
2023-02-23T10:00:30.168Z,7.74
2023-02-23T10:03:29.315Z,7.27
2023-02-23T10:06:02.034Z,7.48
2023-02-23T10:09:06.722Z,7.79
2023-02-23T10:11:56.699Z,8.09
2023-02-23T10:14:38.558Z,7.81
2023-02-23T10:17:21.821Z,8.00
2023-02-23T10:20:15.189Z,8.67
2023-02-23T10:22:45.187Z,8.27
2023-02-23T10:25:36.452Z,8.78
2023-02-23T10:28:04.325Z,8.42
2023-02-23T10:30:34.542Z,8.35
2023-02-23T10:33:18.654Z,8.80
2023-02-23T10:36:12.563Z,9.45
2023-02-23T10:38:41.421Z,9.53
2023-02-23T10:41:10.953Z,9.61
2023-02-23T10:43:39.209Z,9.65
2023-02-23T10:46:07.679Z,10.12
2023-02-23T10:48:41.366Z,9.91
2023-02-23T10:51:16.842Z,9.07
2023-02-23T10:53:44.100Z,9.46
2023-02-23T10:56:15.345Z,9.05
2023-02-23T10:58:49.538Z,8.73
2023-02-23T11:01:33.468Z,8.75
2023-02-23T11:04:14.296Z,8.67
2023-02-23T11:06:43.272Z,8.83
2023-02-23T11:09:44.581Z,8.95
2023-02-23T11:12:37.281Z,9.31
2023-02-23T11:15:38.881Z,10.08
2023-02-23T11:18:22.563Z,10.15
2023-02-23T11:20:51.385Z,9.87
2023-02-23T11:23:29.624Z,9.50
2023-02-23T11:26:02.791Z,9.29
2023-02-23T11:28:35.248Z,9.26
2023-02-23T11:31:16.248Z,9.37
2023-02-23T11:33:44.477Z,9.64
2023-02-23T11:36:17.881Z,9.61
2023-02-23T11:38:48.143Z,9.30
2023-02-23T11:41:24.378Z,9.21
2023-02-23T11:43:56.949Z,9.17
2023-02-23T11:46:26.481Z,9.10
2023-02-23T11:49:00.177Z,9.26
2023-02-23T11:51:30.721Z,9.85
2023-02-23T11:53:59.833Z,9.86
2023-02-23T11:56:29.418Z,9.49
2023-02-23T11:59:16.647Z,10.34
2023-02-23T12:01:50.193Z,11.10
2023-02-23T12:04:31.400Z,10.91
2023-02-23T12:07:43.476Z,10.84
2023-02-23T12:10:15.519Z,10.53
2023-02-23T12:12:53.289Z,10.74
2023-02-23T12:15:34.999Z,10.06
2023-02-23T12:18:18.830Z,10.04
2023-02-23T12:20:49.270Z,10.29
2023-02-23T12:23:26.976Z,10.20
2023-02-23T12:26:29.826Z,10.29
2023-02-23T12:29:49.373Z,10.50
2023-02-23T12:32:24.885Z,10.92
2023-02-23T12:35:02.433Z,10.99
2023-02-23T12:37:41.176Z,11.20
2023-02-23T12:40:28.857Z,11.36
2023-02-23T12:43:27.263Z,11.55
2023-02-23T12:46:08.671Z,11.67
2023-02-23T12:49:01.633Z,11.61
2023-02-23T12:52:38.952Z,11.71
2023-02-23T12:55:14.080Z,11.91
2023-02-23T12:57:45.740Z,12.34
2023-02-23T13:00:31.476Z,12.35
2023-02-23T13:03:17.796Z,12.12
2023-02-23T13:06:04.514Z,11.65
2023-02-23T13:09:11.048Z,11.48
2023-02-23T13:11:56.723Z,11.40
2023-02-23T13:14:34.066Z,11.27
2023-02-23T13:17:09.575Z,11.30
2023-02-23T13:19:50.589Z,11.86
2023-02-23T13:22:47.284Z,12.13
2023-02-23T13:25:54.330Z,12.09
2023-02-23T13:28:57.189Z,12.03
2023-02-23T13:31:34.602Z,11.72
2023-02-23T13:34:03.939Z,11.43
2023-02-23T13:36:36.939Z,11.12
2023-02-23T13:39:20.333Z,11.07
2023-02-23T13:42:21.025Z,11.34
2023-02-23T13:45:20.686Z,11.56
2023-02-23T13:48:07.329Z,11.70
2023-02-23T13:50:48.330Z,11.78
2023-02-23T13:53:37.530Z,11.98
2023-02-23T13:56:09.073Z,11.71
2023-02-23T13:58:37.423Z,11.64
2023-02-23T14:01:21.226Z,11.71
2023-02-23T14:03:54.411Z,11.88
2023-02-23T14:06:26.028Z,11.81
2023-02-23T14:09:08.571Z,11.90
2023-02-23T14:11:53.955Z,11.87
2023-02-23T14:14:34.596Z,11.44
2023-02-23T14:17:12.434Z,11.43
2023-02-23T14:20:03.585Z,11.49
2023-02-23T14:22:34.746Z,11.63
2023-02-23T14:25:32.977Z,11.51
2023-02-23T14:28:22.398Z,11.02
2023-02-23T14:31:14.220Z,10.99
2023-02-23T14:33:46.268Z,11.11
2023-02-23T14:36:22.918Z,11.16
2023-02-23T14:39:07.377Z,11.19
2023-02-23T14:41:34.680Z,11.16
2023-02-23T14:44:29.831Z,11.16
2023-02-23T14:47:16.486Z,11.29
2023-02-23T14:49:51.590Z,11.02
2023-02-23T14:52:35.565Z,10.97
2023-02-23T14:55:29.974Z,10.94
2023-02-23T14:58:04.801Z,11.21
2023-02-23T15:00:41.493Z,11.20
2023-02-23T15:03:12.987Z,11.22
2023-02-23T15:05:55.078Z,11.21
2023-02-23T15:08:25.982Z,11.09
2023-02-23T15:11:13.545Z,10.98
2023-02-23T15:13:47.697Z,10.86
2023-02-23T15:16:24.561Z,10.90
2023-02-23T15:19:34.395Z,10.84
2023-02-23T15:22:03.953Z,10.80
2023-02-23T15:24:43.325Z,10.70
2023-02-23T15:27:26.206Z,10.65
2023-02-23T15:29:55.869Z,10.56
2023-02-23T15:32:26.655Z,10.45
2023-02-23T15:35:04.074Z,10.40
2023-02-23T15:37:56.593Z,10.38
2023-02-23T15:40:33.774Z,10.37
2023-02-23T15:43:01.854Z,10.30
2023-02-23T15:45:30.444Z,10.29
2023-02-23T15:48:03.682Z,10.28
2023-02-23T15:50:37.279Z,10.22
2023-02-23T15:53:13.776Z,10.18
2023-02-23T15:55:44.659Z,10.15
2023-02-23T15:58:25.553Z,10.12
2023-02-23T16:01:29.186Z,10.09
2023-02-23T16:04:02.832Z,10.01
2023-02-23T16:06:35.389Z,10.02
2023-02-23T16:09:20.466Z,9.99
2023-02-23T16:11:52.885Z,9.97
2023-02-23T16:14:22.704Z,9.92
2023-02-23T16:17:08.367Z,9.89
2023-02-23T16:19:41.733Z,9.82
2023-02-23T16:22:20.696Z,9.77
2023-02-23T16:24:58.076Z,9.75
2023-02-23T16:27:27.246Z,9.71
2023-02-23T16:30:31.687Z,9.69
2023-02-23T16:33:23.038Z,9.67
2023-02-23T16:36:15.097Z,9.60
2023-02-23T16:39:00.662Z,9.52
2023-02-23T16:41:31.622Z,9.51
2023-02-23T16:44:02.828Z,9.48
2023-02-23T16:46:33.898Z,9.49
2023-02-23T16:49:12.784Z,9.49
2023-02-23T16:51:40.940Z,9.40
2023-02-23T16:54:09.018Z,9.35
2023-02-23T16:56:40.337Z,9.29
2023-02-23T16:59:11.258Z,9.26
2023-02-23T17:01:39.022Z,9.26
2023-02-23T17:04:15.906Z,9.20
2023-02-23T17:06:45.290Z,9.17
2023-02-23T17:09:13.844Z,9.20
2023-02-23T17:11:42.913Z,9.15
2023-02-23T17:14:20.666Z,9.05
2023-02-23T17:16:48.982Z,9.07
2023-02-23T17:19:19.427Z,9.00
2023-02-23T17:21:49.112Z,9.00
2023-02-23T17:24:17.538Z,8.94
2023-02-23T17:26:46.325Z,8.97
2023-02-23T17:29:15.001Z,8.98
2023-02-23T17:31:42.847Z,8.93
2023-02-23T17:34:16.529Z,8.86
2023-02-23T17:36:47.089Z,8.82
2023-02-23T17:39:18.041Z,8.87
2023-02-23T17:41:47.119Z,8.79
2023-02-23T17:44:15.057Z,8.86
2023-02-23T17:46:44.645Z,8.75
2023-02-23T17:49:14.434Z,8.78
2023-02-23T17:51:43.942Z,8.73
2023-02-23T17:54:14.536Z,8.80
2023-02-23T17:56:44.503Z,8.80
2023-02-23T17:59:12.297Z,8.78
2023-02-23T18:01:42.618Z,8.67
2023-02-23T18:04:10.946Z,8.56
2023-02-23T18:06:39.155Z,8.55
2023-02-23T18:09:09.492Z,8.50
2023-02-23T18:11:37.599Z,8.52
2023-02-23T18:14:06.079Z,8.36
2023-02-23T18:16:36.480Z,8.31
2023-02-23T18:19:05.639Z,8.25
2023-02-23T18:21:35.442Z,8.21
2023-02-23T18:24:04.610Z,8.09
2023-02-23T18:26:33.699Z,8.05
2023-02-23T18:29:04.528Z,8.07
2023-02-23T18:31:38.990Z,8.08
2023-02-23T18:34:09.797Z,8.08
2023-02-23T18:36:39.042Z,8.14
2023-02-23T18:39:11.117Z,8.07
2023-02-23T18:41:42.639Z,8.03
2023-02-23T18:44:15.775Z,8.03
2023-02-23T18:46:46.629Z,7.86
2023-02-23T18:49:24.414Z,7.83
2023-02-23T18:51:56.152Z,7.55
2023-02-23T18:54:26.717Z,7.52
2023-02-23T18:56:56.762Z,7.28
2023-02-23T18:59:24.581Z,7.10
2023-02-23T19:01:54.233Z,6.91
2023-02-23T19:04:22.474Z,7.19
2023-02-23T19:07:02.750Z,7.13
2023-02-23T19:09:31.201Z,7.00
2023-02-23T19:12:01.341Z,7.17
2023-02-23T19:14:48.885Z,7.09
2023-02-23T19:17:21.036Z,6.85
2023-02-23T19:19:49.673Z,6.83
2023-02-23T19:22:17.957Z,6.90
2023-02-23T19:24:48.919Z,6.82
2023-02-23T19:27:17.296Z,6.72
2023-02-23T19:29:47.204Z,6.61
2023-02-23T19:32:20.080Z,6.57
2023-02-23T19:34:48.882Z,6.59
2023-02-23T19:37:17.308Z,6.48
2023-02-23T19:39:50.705Z,6.35
2023-02-23T19:42:26.547Z,6.55
2023-02-23T19:44:55.561Z,6.39
2023-02-23T19:47:23.891Z,6.12
2023-02-23T19:49:55.337Z,6.11
2023-02-23T19:52:23.723Z,6.10
2023-02-23T19:54:51.459Z,6.04
2023-02-23T19:57:22.012Z,6.28
2023-02-23T19:59:51.973Z,6.15
2023-02-23T20:02:19.535Z,5.93
2023-02-23T20:04:51.706Z,5.88
2023-02-23T20:07:19.625Z,6.10
2023-02-23T20:09:48.065Z,6.06
2023-02-23T20:12:17.486Z,6.03
2023-02-23T20:14:45.924Z,6.04
2023-02-23T20:17:14.272Z,5.91
2023-02-23T20:19:44.361Z,5.64
2023-02-23T20:22:12.668Z,5.86
2023-02-23T20:24:42.579Z,5.79
2023-02-23T20:27:13.418Z,5.54
2023-02-23T20:29:43.887Z,5.50
2023-02-23T20:32:13.386Z,5.50
2023-02-23T20:34:43.938Z,5.53
2023-02-23T20:37:12.645Z,5.58
2023-02-23T20:39:47.265Z,5.59
2023-02-23T20:42:15.072Z,5.59
2023-02-23T20:44:49.175Z,5.45
2023-02-23T20:47:30.637Z,5.32
2023-02-23T20:49:59.284Z,5.31
2023-02-23T20:52:26.927Z,5.24
2023-02-23T20:55:03.782Z,5.10
2023-02-23T20:57:33.695Z,4.99
2023-02-23T21:00:02.580Z,5.00
2023-02-23T21:02:33.471Z,5.17
2023-02-23T21:05:01.989Z,5.16
2023-02-23T21:07:30.108Z,5.09
2023-02-23T21:10:00.832Z,5.08
2023-02-23T21:12:29.052Z,5.28
2023-02-23T21:14:57.582Z,5.30
2023-02-23T21:17:26.287Z,5.40
2023-02-23T21:19:54.817Z,5.43
2023-02-23T21:22:23.478Z,5.39
2023-02-23T21:24:51.546Z,5.24
2023-02-23T21:27:21.111Z,5.13
2023-02-23T21:29:48.909Z,4.90
2023-02-23T21:32:18.956Z,4.78
2023-02-23T21:34:46.993Z,4.53
2023-02-23T21:37:15.638Z,4.48
2023-02-23T21:39:51.333Z,4.47
2023-02-23T21:42:23.093Z,4.80
2023-02-23T21:44:51.184Z,5.07
2023-02-23T21:47:20.888Z,4.87
2023-02-23T21:49:55.078Z,4.77
2023-02-23T21:52:23.041Z,4.53
2023-02-23T21:54:52.442Z,4.47
2023-02-23T21:57:23.134Z,4.56
2023-02-23T21:59:50.883Z,4.57
2023-02-23T22:02:20.574Z,4.67
2023-02-23T22:04:50.235Z,4.77
2023-02-23T22:07:17.691Z,4.73
2023-02-23T22:09:45.148Z,4.62
2023-02-23T22:12:12.664Z,4.72
2023-02-23T22:14:39.917Z,4.73
2023-02-23T22:17:09.969Z,4.57
2023-02-23T22:19:38.743Z,4.57
2023-02-23T22:22:20.409Z,4.47
2023-02-23T22:24:51.875Z,4.44
2023-02-23T22:27:19.501Z,4.26
2023-02-23T22:29:46.712Z,4.34
2023-02-23T22:32:14.394Z,4.41
2023-02-23T22:34:41.774Z,4.34
2023-02-23T22:37:09.139Z,4.33
2023-02-23T22:39:41.868Z,4.31
2023-02-23T22:42:12.903Z,4.42
2023-02-23T22:44:47.337Z,4.37
2023-02-23T22:47:15.923Z,4.37
2023-02-23T22:49:43.311Z,4.37
2023-02-23T22:52:10.747Z,4.24
2023-02-23T22:54:40.035Z,4.05
2023-02-23T22:57:07.323Z,4.02
2023-02-23T22:59:34.745Z,4.13
2023-02-23T23:02:03.160Z,4.39
2023-02-23T23:04:30.760Z,4.39
2023-02-23T23:06:58.543Z,4.26
2023-02-23T23:09:25.920Z,4.23
2023-02-23T23:11:54.123Z,4.10
2023-02-23T23:14:21.330Z,4.02
2023-02-23T23:16:52.419Z,3.86
2023-02-23T23:19:24.496Z,3.96
2023-02-23T23:22:00.645Z,3.78
2023-02-23T23:24:28.263Z,3.92
2023-02-23T23:26:56.063Z,3.83
2023-02-23T23:29:26.075Z,3.92
2023-02-23T23:31:53.940Z,3.95
2023-02-23T23:34:33.807Z,3.75
2023-02-23T23:37:03.177Z,3.74
2023-02-23T23:39:30.490Z,3.78
2023-02-23T23:41:58.967Z,3.90
2023-02-23T23:44:29.752Z,4.05
2023-02-23T23:46:58.538Z,4.15
2023-02-23T23:49:27.966Z,4.16
2023-02-23T23:51:56.943Z,4.21
2023-02-23T23:54:31.126Z,4.21
2023-02-23T23:57:01.707Z,4.07
2023-02-23T23:59:32.038Z,4.10
